sensor_id;sensor_type;location;lat;lon;timestamp;pressure;altitude;pressure_sealevel;temperature;humidity
141;BME280;65;48.778;9.160;2023-04-22T00:01:00;97877.31;;;11.55;97.17
141;BME280;65;48.778;9.160;2023-04-22T00:03:46;97880.16;;;11.52;97.74
141;BME280;65;48.778;9.160;2023-04-22T00:06:32;97879.44;;;11.50;98.65
141;BME280;65;48.778;9.160;2023-04-22T00:09:18;97874.88;;;11.52;99.65
141;BME280;65;48.778;9.160;2023-04-22T00:12:04;97868.84;;;11.50;99.65
141;BME280;65;48.778;9.160;2023-04-22T00:14:50;97877.53;;;11.52;99.74
141;BME280;65;48.778;9.160;2023-04-22T00:17:36;97876.69;;;11.52;99.10
141;BME280;65;48.778;9.160;2023-04-22T00:20:21;97876.78;;;11.50;99.42
141;BME280;65;48.778;9.160;2023-04-22T00:23:07;97875.84;;;11.51;100.00
141;BME280;65;48.778;9.160;2023-04-22T00:25:53;97875.22;;;11.48;100.00
141;BME280;65;48.778;9.160;2023-04-22T00:28:38;97873.53;;;11.47;100.00
141;BME280;65;48.778;9.160;2023-04-22T00:31:24;97871.00;;;11.45;99.56
141;BME280;65;48.778;9.160;2023-04-22T00:34:10;97871.00;;;11.45;100.00
141;BME280;65;48.778;9.160;2023-04-22T00:36:56;97870.03;;;11.46;100.00
141;BME280;65;48.778;9.160;2023-04-22T00:39:42;97862.72;;;11.50;100.00
141;BME280;65;48.778;9.160;2023-04-22T00:42:28;97870.53;;;11.51;100.00
141;BME280;65;48.778;9.160;2023-04-22T00:45:15;97866.09;;;11.52;100.00
141;BME280;65;48.778;9.160;2023-04-22T00:48:02;97866.09;;;11.52;100.00
141;BME280;65;48.778;9.160;2023-04-22T00:50:48;97865.38;;;11.50;100.00
141;BME280;65;48.778;9.160;2023-04-22T00:53:34;97869.19;;;11.46;100.00
141;BME280;65;48.778;9.160;2023-04-22T00:56:20;97874.38;;;11.47;100.00
141;BME280;65;48.778;9.160;2023-04-22T00:59:08;97877.13;;;11.46;100.00
141;BME280;65;48.778;9.160;2023-04-22T01:01:54;97874.59;;;11.44;100.00
141;BME280;65;48.778;9.160;2023-04-22T01:04:40;97874.81;;;11.41;100.00
141;BME280;65;48.778;9.160;2023-04-22T01:07:26;97864.44;;;11.38;100.00
141;BME280;65;48.778;9.160;2023-04-22T01:10:13;97870.81;;;11.35;100.00
141;BME280;65;48.778;9.160;2023-04-22T01:12:58;97865.91;;;11.42;100.00
141;BME280;65;48.778;9.160;2023-04-22T01:15:44;97862.53;;;11.40;100.00
141;BME280;65;48.778;9.160;2023-04-22T01:18:31;97867.19;;;11.36;100.00
141;BME280;65;48.778;9.160;2023-04-22T01:21:17;97873.34;;;11.37;100.00
141;BME280;65;48.778;9.160;2023-04-22T01:24:04;97872.81;;;11.32;100.00
141;BME280;65;48.778;9.160;2023-04-22T01:26:49;97875.69;;;11.29;100.00
141;BME280;65;48.778;9.160;2023-04-22T01:29:38;97871.47;;;11.26;100.00
141;BME280;65;48.778;9.160;2023-04-22T01:32:24;97876.00;;;11.24;100.00
141;BME280;65;48.778;9.160;2023-04-22T01:35:10;97872.84;;;11.19;100.00
141;BME280;65;48.778;9.160;2023-04-22T01:37:56;97866.19;;;11.14;100.00
141;BME280;65;48.778;9.160;2023-04-22T01:40:42;97864.63;;;11.11;100.00
141;BME280;65;48.778;9.160;2023-04-22T01:43:29;97862.91;;;11.10;100.00
141;BME280;65;48.778;9.160;2023-04-22T01:46:18;97875.53;;;11.06;100.00
141;BME280;65;48.778;9.160;2023-04-22T01:49:04;97878.47;;;11.02;100.00
141;BME280;65;48.778;9.160;2023-04-22T01:51:49;97877.63;;;11.01;100.00
141;BME280;65;48.778;9.160;2023-04-22T01:54:35;97874.88;;;11.03;100.00
141;BME280;65;48.778;9.160;2023-04-22T01:57:21;97869.50;;;11.04;100.00
141;BME280;65;48.778;9.160;2023-04-22T02:00:07;97870.34;;;11.05;100.00
141;BME280;65;48.778;9.160;2023-04-22T02:02:53;97868.75;;;11.02;100.00
141;BME280;65;48.778;9.160;2023-04-22T02:05:39;97870.56;;;11.02;100.00
141;BME280;65;48.778;9.160;2023-04-22T02:08:25;97874.25;;;10.99;100.00
141;BME280;65;48.778;9.160;2023-04-22T02:11:11;97883.03;;;11.00;100.00
141;BME280;65;48.778;9.160;2023-04-22T02:13:56;97890.97;;;11.00;100.00
141;BME280;65;48.778;9.160;2023-04-22T02:16:42;97879.72;;;10.96;100.00
141;BME280;65;48.778;9.160;2023-04-22T02:19:28;97885.22;;;10.93;100.00
141;BME280;65;48.778;9.160;2023-04-22T02:22:14;97881.75;;;10.93;100.00
141;BME280;65;48.778;9.160;2023-04-22T02:25:00;97888.09;;;10.90;100.00
141;BME280;65;48.778;9.160;2023-04-22T02:27:46;97880.16;;;10.90;100.00
141;BME280;65;48.778;9.160;2023-04-22T02:30:31;97892.63;;;10.88;100.00
141;BME280;65;48.778;9.160;2023-04-22T02:33:17;97894.44;;;10.88;100.00
141;BME280;65;48.778;9.160;2023-04-22T02:36:03;97892.13;;;10.83;100.00
141;BME280;65;48.778;9.160;2023-04-22T02:38:48;97892.31;;;10.80;100.00
141;BME280;65;48.778;9.160;2023-04-22T02:41:34;97890.84;;;10.76;100.00
141;BME280;65;48.778;9.160;2023-04-22T02:44:20;97898.78;;;10.76;100.00
141;BME280;65;48.778;9.160;2023-04-22T02:47:06;97903.94;;;10.77;100.00
141;BME280;65;48.778;9.160;2023-04-22T02:49:52;97904.06;;;10.76;100.00
141;BME280;65;48.778;9.160;2023-04-22T02:52:37;97898.25;;;10.71;100.00
141;BME280;65;48.778;9.160;2023-04-22T02:55:23;97895.81;;;10.68;100.00
141;BME280;65;48.778;9.160;2023-04-22T02:58:09;97896.03;;;10.65;100.00
141;BME280;65;48.778;9.160;2023-04-22T03:00:55;97897.06;;;10.62;100.00
141;BME280;65;48.778;9.160;2023-04-22T03:03:42;97900.03;;;10.58;100.00
141;BME280;65;48.778;9.160;2023-04-22T03:06:28;97900.34;;;10.53;100.00
141;BME280;65;48.778;9.160;2023-04-22T03:09:13;97895.16;;;10.52;100.00
141;BME280;65;48.778;9.160;2023-04-22T03:11:59;97886.81;;;10.45;100.00
141;BME280;65;48.778;9.160;2023-04-22T03:14:45;97884.00;;;10.34;100.00
141;BME280;65;48.778;9.160;2023-04-22T03:17:31;97884.75;;;10.23;100.00
141;BME280;65;48.778;9.160;2023-04-22T03:20:16;97898.16;;;10.20;100.00
141;BME280;65;48.778;9.160;2023-04-22T03:23:02;97891.34;;;10.16;100.00
141;BME280;65;48.778;9.160;2023-04-22T03:25:48;97894.41;;;10.10;100.00
141;BME280;65;48.778;9.160;2023-04-22T03:28:34;97891.97;;;10.07;100.00
141;BME280;65;48.778;9.160;2023-04-22T03:31:19;97885.94;;;10.05;100.00
141;BME280;65;48.778;9.160;2023-04-22T03:34:05;97892.50;;;10.12;100.00
141;BME280;65;48.778;9.160;2023-04-22T03:36:51;97883.84;;;10.10;100.00
141;BME280;65;48.778;9.160;2023-04-22T03:39:37;97893.75;;;10.06;100.00
141;BME280;65;48.778;9.160;2023-04-22T03:42:22;97900.28;;;10.01;100.00
141;BME280;65;48.778;9.160;2023-04-22T03:45:08;97905.75;;;9.98;100.00
141;BME280;65;48.778;9.160;2023-04-22T03:47:54;97905.75;;;9.98;100.00
141;BME280;65;48.778;9.160;2023-04-22T03:50:40;97906.81;;;9.95;100.00
141;BME280;65;48.778;9.160;2023-04-22T03:53:25;97903.53;;;9.92;100.00
141;BME280;65;48.778;9.160;2023-04-22T03:56:11;97902.88;;;9.88;100.00
141;BME280;65;48.778;9.160;2023-04-22T03:58:57;97904.78;;;9.86;100.00
141;BME280;65;48.778;9.160;2023-04-22T04:01:45;97912.78;;;9.85;100.00
141;BME280;65;48.778;9.160;2023-04-22T04:04:31;97911.94;;;9.84;100.00
141;BME280;65;48.778;9.160;2023-04-22T04:07:17;97903.81;;;9.87;100.00
141;BME280;65;48.778;9.160;2023-04-22T04:10:03;97904.47;;;9.91;100.00
141;BME280;65;48.778;9.160;2023-04-22T04:12:49;97902.97;;;9.87;100.00
141;BME280;65;48.778;9.160;2023-04-22T04:15:35;97902.34;;;9.83;100.00
141;BME280;65;48.778;9.160;2023-04-22T04:18:21;97900.69;;;9.80;100.00
141;BME280;65;48.778;9.160;2023-04-22T04:21:08;97906.94;;;9.79;100.00
141;BME280;65;48.778;9.160;2023-04-22T04:23:54;97892.78;;;9.80;100.00
141;BME280;65;48.778;9.160;2023-04-22T04:26:39;97894.56;;;9.80;100.00
141;BME280;65;48.778;9.160;2023-04-22T04:29:26;97899.41;;;9.88;100.00
141;BME280;65;48.778;9.160;2023-04-22T04:32:11;97899.94;;;9.93;100.00
141;BME280;65;48.778;9.160;2023-04-22T04:34:57;97902.06;;;10.00;100.00
141;BME280;65;48.778;9.160;2023-04-22T04:37:44;97896.19;;;10.09;100.00
141;BME280;65;48.778;9.160;2023-04-22T04:40:31;97887.72;;;10.31;100.00
141;BME280;65;48.778;9.160;2023-04-22T04:43:17;97886.81;;;10.45;100.00
141;BME280;65;48.778;9.160;2023-04-22T04:46:03;97883.22;;;10.46;100.00
141;BME280;65;48.778;9.160;2023-04-22T04:48:48;97888.59;;;10.44;100.00
141;BME280;65;48.778;9.160;2023-04-22T04:51:36;97885.22;;;10.42;100.00
141;BME280;65;48.778;9.160;2023-04-22T04:54:21;97886.91;;;10.43;100.00
141;BME280;65;48.778;9.160;2023-04-22T04:57:07;97885.00;;;10.45;100.00
141;BME280;65;48.778;9.160;2023-04-22T04:59:54;97883.84;;;10.50;100.00
141;BME280;65;48.778;9.160;2023-04-22T05:02:40;97880.16;;;10.52;100.00
141;BME280;65;48.778;9.160;2023-04-22T05:05:26;97883.13;;;10.60;100.00
141;BME280;65;48.778;9.160;2023-04-22T05:08:11;97875.09;;;10.74;100.00
141;BME280;65;48.778;9.160;2023-04-22T05:10:57;97886.72;;;10.97;100.00
141;BME280;65;48.778;9.160;2023-04-22T05:13:43;97880.28;;;11.01;100.00
141;BME280;65;48.778;9.160;2023-04-22T05:16:29;97885.88;;;11.09;100.00
141;BME280;65;48.778;9.160;2023-04-22T05:19:14;97883.75;;;11.15;100.00
141;BME280;65;48.778;9.160;2023-04-22T05:22:00;97873.41;;;11.12;100.00
141;BME280;65;48.778;9.160;2023-04-22T05:24:46;97877.09;;;11.09;100.00
141;BME280;65;48.778;9.160;2023-04-22T05:27:31;97886.72;;;11.10;100.00
141;BME280;65;48.778;9.160;2023-04-22T05:30:18;97890.84;;;11.14;100.00
141;BME280;65;48.778;9.160;2023-04-22T05:33:03;97890.22;;;11.11;100.00
141;BME280;65;48.778;9.160;2023-04-22T05:35:49;97888.84;;;11.18;100.00
141;BME280;65;48.778;9.160;2023-04-22T05:38:36;97894.84;;;11.20;100.00
141;BME280;65;48.778;9.160;2023-04-22T05:41:22;97896.63;;;11.32;93.79
141;BME280;65;48.778;9.160;2023-04-22T05:44:08;97898.59;;;11.54;95.81
141;BME280;65;48.778;9.160;2023-04-22T05:46:53;97905.28;;;11.59;93.08
141;BME280;65;48.778;9.160;2023-04-22T05:49:39;97896.03;;;11.65;92.39
141;BME280;65;48.778;9.160;2023-04-22T05:52:25;97893.78;;;11.71;90.10
141;BME280;65;48.778;9.160;2023-04-22T05:55:10;97896.09;;;11.89;87.00
141;BME280;65;48.778;9.160;2023-04-22T05:57:56;97892.03;;;11.96;90.92
141;BME280;65;48.778;9.160;2023-04-22T06:00:42;97896.72;;;12.16;86.98
141;BME280;65;48.778;9.160;2023-04-22T06:03:28;97896.53;;;12.30;84.90
141;BME280;65;48.778;9.160;2023-04-22T06:06:14;97899.75;;;12.58;84.85
141;BME280;65;48.778;9.160;2023-04-22T06:09:00;97902.13;;;12.50;86.27
141;BME280;65;48.778;9.160;2023-04-22T06:11:46;97903.38;;;12.68;87.28
141;BME280;65;48.778;9.160;2023-04-22T06:14:32;97911.03;;;12.84;84.89
141;BME280;65;48.778;9.160;2023-04-22T06:17:17;97908.53;;;13.05;82.45
141;BME280;65;48.778;9.160;2023-04-22T06:20:03;97909.81;;;13.45;80.64
141;BME280;65;48.778;9.160;2023-04-22T06:22:51;97904.66;;;13.87;78.24
141;BME280;65;48.778;9.160;2023-04-22T06:25:36;97899.63;;;14.16;77.62
141;BME280;65;48.778;9.160;2023-04-22T06:28:22;97906.78;;;14.15;77.66
141;BME280;65;48.778;9.160;2023-04-22T06:31:08;97901.19;;;14.18;77.02
141;BME280;65;48.778;9.160;2023-04-22T06:33:53;97902.22;;;14.06;78.55
141;BME280;65;48.778;9.160;2023-04-22T06:36:39;97902.72;;;14.32;75.45
141;BME280;65;48.778;9.160;2023-04-22T06:39:28;97909.22;;;14.39;79.19
141;BME280;65;48.778;9.160;2023-04-22T06:42:14;97906.09;;;14.66;76.36
141;BME280;65;48.778;9.160;2023-04-22T06:44:59;97907.28;;;14.52;75.73
141;BME280;65;48.778;9.160;2023-04-22T06:47:45;97902.34;;;14.69;75.83
141;BME280;65;48.778;9.160;2023-04-22T06:50:31;97903.97;;;14.60;78.94
141;BME280;65;48.778;9.160;2023-04-22T06:53:17;97901.81;;;14.75;75.99
141;BME280;65;48.778;9.160;2023-04-22T06:56:04;97914.28;;;14.95;75.40
141;BME280;65;48.778;9.160;2023-04-22T06:58:49;97911.88;;;15.13;82.83
141;BME280;65;48.778;9.160;2023-04-22T07:01:35;97905.84;;;15.11;77.97
141;BME280;65;48.778;9.160;2023-04-22T07:04:21;97910.47;;;14.67;75.01
141;BME280;65;48.778;9.160;2023-04-22T07:07:07;97905.63;;;15.24;74.60
141;BME280;65;48.778;9.160;2023-04-22T07:09:52;97909.34;;;15.63;76.95
141;BME280;65;48.778;9.160;2023-04-22T07:12:38;97910.31;;;15.62;73.95
141;BME280;65;48.778;9.160;2023-04-22T07:15:55;97897.13;;;15.39;73.25
141;BME280;65;48.778;9.160;2023-04-22T07:18:41;97909.84;;;16.06;72.94
141;BME280;65;48.778;9.160;2023-04-22T07:21:27;97894.13;;;15.94;72.40
141;BME280;65;48.778;9.160;2023-04-22T07:24:12;97891.44;;;15.84;72.04
141;BME280;65;48.778;9.160;2023-04-22T07:26:58;97888.84;;;16.23;70.44
141;BME280;65;48.778;9.160;2023-04-22T07:29:44;97884.59;;;16.10;71.07
141;BME280;65;48.778;9.160;2023-04-22T07:32:30;97882.78;;;16.11;72.58
141;BME280;65;48.778;9.160;2023-04-22T07:35:15;97884.72;;;15.99;72.56
141;BME280;65;48.778;9.160;2023-04-22T07:38:02;97881.50;;;16.63;69.55
141;BME280;65;48.778;9.160;2023-04-22T07:40:48;97881.66;;;16.91;69.49
141;BME280;65;48.778;9.160;2023-04-22T07:43:33;97879.56;;;16.85;67.49
141;BME280;65;48.778;9.160;2023-04-22T07:46:19;97892.41;;;17.18;66.69
141;BME280;65;48.778;9.160;2023-04-22T07:49:05;97884.88;;;17.78;63.33
141;BME280;65;48.778;9.160;2023-04-22T07:51:51;97887.44;;;17.97;63.76
141;BME280;65;48.778;9.160;2023-04-22T07:54:36;97893.34;;;18.19;60.43
141;BME280;65;48.778;9.160;2023-04-22T07:57:22;97883.72;;;18.26;61.15
141;BME280;65;48.778;9.160;2023-04-22T08:00:22;97899.09;;;18.42;60.24
141;BME280;65;48.778;9.160;2023-04-22T08:03:08;97899.31;;;18.48;64.96
141;BME280;65;48.778;9.160;2023-04-22T08:05:53;97900.41;;;18.55;60.45
141;BME280;65;48.778;9.160;2023-04-22T08:08:42;97901.56;;;19.14;56.88
141;BME280;65;48.778;9.160;2023-04-22T08:11:28;97905.66;;;19.52;55.17
141;BME280;65;48.778;9.160;2023-04-22T08:14:13;97907.94;;;19.47;54.47
141;BME280;65;48.778;9.160;2023-04-22T08:16:59;97903.78;;;19.19;55.11
141;BME280;65;48.778;9.160;2023-04-22T08:19:45;97900.97;;;19.03;55.06
141;BME280;65;48.778;9.160;2023-04-22T08:22:31;97901.41;;;18.72;56.26
141;BME280;65;48.778;9.160;2023-04-22T08:25:17;97895.53;;;18.69;55.73
141;BME280;65;48.778;9.160;2023-04-22T08:28:03;97891.06;;;18.59;56.42
141;BME280;65;48.778;9.160;2023-04-22T08:30:49;97891.97;;;20.14;51.94
141;BME280;65;48.778;9.160;2023-04-22T08:33:35;97891.69;;;22.56;47.28
141;BME280;65;48.778;9.160;2023-04-22T08:36:20;97891.00;;;23.52;44.71
141;BME280;65;48.778;9.160;2023-04-22T08:39:08;97888.50;;;25.66;42.98
141;BME280;65;48.778;9.160;2023-04-22T08:41:54;97881.88;;;24.70;39.95
141;BME280;65;48.778;9.160;2023-04-22T08:44:44;97884.47;;;25.96;39.29
141;BME280;65;48.778;9.160;2023-04-22T08:47:30;97887.03;;;25.35;37.33
141;BME280;65;48.778;9.160;2023-04-22T08:50:19;97875.38;;;23.33;40.46
141;BME280;65;48.778;9.160;2023-04-22T08:53:05;97882.38;;;23.04;42.44
141;BME280;65;48.778;9.160;2023-04-22T08:55:54;97879.16;;;26.16;39.50
141;BME280;65;48.778;9.160;2023-04-22T08:58:41;97876.38;;;26.57;38.93
141;BME280;65;48.778;9.160;2023-04-22T09:01:27;97872.66;;;28.98;35.32
141;BME280;65;48.778;9.160;2023-04-22T09:04:15;97867.00;;;29.00;32.46
141;BME280;65;48.778;9.160;2023-04-22T09:07:03;97863.75;;;28.84;31.54
141;BME280;65;48.778;9.160;2023-04-22T09:09:49;97861.88;;;28.78;34.50
141;BME280;65;48.778;9.160;2023-04-22T09:12:35;97852.94;;;27.88;31.11
141;BME280;65;48.778;9.160;2023-04-22T09:15:21;97854.50;;;28.16;32.10
141;BME280;65;48.778;9.160;2023-04-22T09:18:08;97855.28;;;28.99;32.75
141;BME280;65;48.778;9.160;2023-04-22T09:20:55;97854.13;;;29.56;29.03
141;BME280;65;48.778;9.160;2023-04-22T09:23:48;97850.28;;;28.26;29.81
141;BME280;65;48.778;9.160;2023-04-22T09:26:38;97848.47;;;27.29;31.10
141;BME280;65;48.778;9.160;2023-04-22T09:29:28;97851.81;;;26.85;33.93
141;BME280;65;48.778;9.160;2023-04-22T09:32:16;97840.00;;;27.84;32.12
141;BME280;65;48.778;9.160;2023-04-22T09:35:02;97845.53;;;26.65;31.18
141;BME280;65;48.778;9.160;2023-04-22T09:37:50;97854.25;;;27.79;33.19
141;BME280;65;48.778;9.160;2023-04-22T09:40:40;97849.78;;;27.98;28.87
141;BME280;65;48.778;9.160;2023-04-22T09:43:31;97853.84;;;27.56;32.50
141;BME280;65;48.778;9.160;2023-04-22T09:46:17;97850.00;;;28.73;29.54
141;BME280;65;48.778;9.160;2023-04-22T09:49:02;97845.94;;;24.97;33.58
141;BME280;65;48.778;9.160;2023-04-22T09:51:54;97839.66;;;23.60;36.31
141;BME280;65;48.778;9.160;2023-04-22T09:54:48;97841.91;;;23.72;36.98
141;BME280;65;48.778;9.160;2023-04-22T09:57:38;97832.78;;;26.52;35.78
141;BME280;65;48.778;9.160;2023-04-22T10:00:27;97834.50;;;27.06;33.44
141;BME280;65;48.778;9.160;2023-04-22T10:03:14;97832.00;;;27.24;32.52
141;BME280;65;48.778;9.160;2023-04-22T10:06:00;97822.44;;;29.19;30.28
141;BME280;65;48.778;9.160;2023-04-22T10:08:46;97816.22;;;30.51;26.96
141;BME280;65;48.778;9.160;2023-04-22T10:11:32;97816.72;;;31.02;26.58
141;BME280;65;48.778;9.160;2023-04-22T10:14:22;97809.25;;;31.21;27.05
141;BME280;65;48.778;9.160;2023-04-22T10:17:09;97821.81;;;30.15;27.04
141;BME280;65;48.778;9.160;2023-04-22T10:19:59;97816.06;;;29.07;28.58
141;BME280;65;48.778;9.160;2023-04-22T10:22:51;97815.31;;;27.01;29.06
141;BME280;65;48.778;9.160;2023-04-22T10:25:38;97815.38;;;28.86;27.49
141;BME280;65;48.778;9.160;2023-04-22T10:28:27;97811.63;;;31.17;23.54
141;BME280;65;48.778;9.160;2023-04-22T10:31:20;97806.97;;;31.76;23.25
141;BME280;65;48.778;9.160;2023-04-22T10:34:13;97802.28;;;30.60;23.92
141;BME280;65;48.778;9.160;2023-04-22T10:40:06;97798.44;;;30.91;23.23
141;BME280;65;48.778;9.160;2023-04-22T10:42:57;97786.69;;;30.90;22.42
141;BME280;65;48.778;9.160;2023-04-22T10:45:47;97789.22;;;33.09;20.50
141;BME280;65;48.778;9.160;2023-04-22T10:48:49;97780.56;;;33.94;20.23
141;BME280;65;48.778;9.160;2023-04-22T10:51:49;97773.03;;;33.63;21.10
141;BME280;65;48.778;9.160;2023-04-22T10:57:32;97768.94;;;30.16;22.07
141;BME280;65;48.778;9.160;2023-04-22T11:00:39;97771.03;;;31.21;23.59
141;BME280;65;48.778;9.160;2023-04-22T11:03:27;97762.44;;;32.32;19.78
141;BME280;65;48.778;9.160;2023-04-22T11:06:15;97774.41;;;32.60;19.03
141;BME280;65;48.778;9.160;2023-04-22T11:09:10;97773.16;;;31.19;20.39
141;BME280;65;48.778;9.160;2023-04-22T11:15:24;97784.06;;;29.45;21.83
141;BME280;65;48.778;9.160;2023-04-22T11:18:15;97771.72;;;30.81;20.04
141;BME280;65;48.778;9.160;2023-04-22T11:21:03;97774.59;;;31.33;19.66
141;BME280;65;48.778;9.160;2023-04-22T11:23:51;97780.84;;;30.75;20.03
141;BME280;65;48.778;9.160;2023-04-22T11:26:37;97770.53;;;30.89;20.14
141;BME280;65;48.778;9.160;2023-04-22T11:29:23;97763.91;;;30.84;22.39
141;BME280;65;48.778;9.160;2023-04-22T11:32:09;97754.09;;;29.94;21.63
141;BME280;65;48.778;9.160;2023-04-22T11:34:56;97765.97;;;31.88;19.04
141;BME280;65;48.778;9.160;2023-04-22T11:37:45;97759.34;;;32.91;18.04
141;BME280;65;48.778;9.160;2023-04-22T11:40:40;97753.47;;;31.17;20.76
141;BME280;65;48.778;9.160;2023-04-22T11:43:26;97755.81;;;30.78;20.29
141;BME280;65;48.778;9.160;2023-04-22T11:46:11;97753.22;;;30.83;21.50
141;BME280;65;48.778;9.160;2023-04-22T11:49:13;97750.84;;;30.98;19.31
141;BME280;65;48.778;9.160;2023-04-22T11:52:00;97755.38;;;31.28;20.90
141;BME280;65;48.778;9.160;2023-04-22T11:54:46;97752.69;;;31.56;20.87
141;BME280;65;48.778;9.160;2023-04-22T11:57:34;97759.66;;;31.75;18.95
141;BME280;65;48.778;9.160;2023-04-22T12:00:22;97769.28;;;29.35;23.36
141;BME280;65;48.778;9.160;2023-04-22T12:06:03;97754.56;;;26.89;26.96
141;BME280;65;48.778;9.160;2023-04-22T12:08:49;97752.28;;;26.86;24.96
141;BME280;65;48.778;9.160;2023-04-22T12:11:34;97741.75;;;27.93;23.99
141;BME280;65;48.778;9.160;2023-04-22T12:14:20;97758.22;;;28.93;24.46
141;BME280;65;48.778;9.160;2023-04-22T12:17:15;97750.59;;;29.02;27.11
141;BME280;65;48.778;9.160;2023-04-22T12:20:04;97743.47;;;28.51;23.73
141;BME280;65;48.778;9.160;2023-04-22T12:22:51;97757.03;;;27.30;26.06
141;BME280;65;48.778;9.160;2023-04-22T12:25:37;97763.31;;;26.31;26.81
141;BME280;65;48.778;9.160;2023-04-22T12:28:23;97753.59;;;25.76;27.61
141;BME280;65;48.778;9.160;2023-04-22T12:31:09;97756.28;;;25.28;28.41
141;BME280;65;48.778;9.160;2023-04-22T12:33:55;97747.91;;;26.52;28.02
141;BME280;65;48.778;9.160;2023-04-22T12:36:41;97747.59;;;28.28;23.74
141;BME280;65;48.778;9.160;2023-04-22T12:39:26;97755.34;;;27.93;25.28
141;BME280;65;48.778;9.160;2023-04-22T12:42:12;97751.22;;;28.16;23.78
141;BME280;65;48.778;9.160;2023-04-22T12:44:58;97759.13;;;28.24;23.29
141;BME280;65;48.778;9.160;2023-04-22T12:47:44;97742.88;;;27.79;24.80
141;BME280;65;48.778;9.160;2023-04-22T12:50:31;97747.06;;;26.84;25.50
141;BME280;65;48.778;9.160;2023-04-22T12:53:16;97746.63;;;26.28;26.82
141;BME280;65;48.778;9.160;2023-04-22T12:56:02;97750.47;;;25.31;28.80
141;BME280;65;48.778;9.160;2023-04-22T12:58:48;97749.59;;;25.24;27.01
141;BME280;65;48.778;9.160;2023-04-22T13:01:34;97758.84;;;24.80;27.43
141;BME280;65;48.778;9.160;2023-04-22T13:04:20;97756.28;;;25.28;27.46
141;BME280;65;48.778;9.160;2023-04-22T13:07:05;97753.31;;;25.16;27.24
141;BME280;65;48.778;9.160;2023-04-22T13:09:51;97755.00;;;24.89;28.62
141;BME280;65;48.778;9.160;2023-04-22T13:12:38;97747.97;;;24.67;29.19
141;BME280;65;48.778;9.160;2023-04-22T13:15:23;97756.75;;;24.48;29.29
141;BME280;65;48.778;9.160;2023-04-22T13:18:11;97751.53;;;24.46;28.67
141;BME280;65;48.778;9.160;2023-04-22T13:20:56;97754.34;;;24.17;28.99
141;BME280;65;48.778;9.160;2023-04-22T13:23:42;97752.09;;;23.99;30.76
141;BME280;65;48.778;9.160;2023-04-22T13:26:28;97755.13;;;23.89;29.39
141;BME280;65;48.778;9.160;2023-04-22T13:29:14;97743.75;;;23.94;29.46
141;BME280;65;48.778;9.160;2023-04-22T13:32:01;97752.66;;;23.73;30.68
141;BME280;65;48.778;9.160;2023-04-22T13:34:47;97746.53;;;23.64;31.06
141;BME280;65;48.778;9.160;2023-04-22T13:37:33;97757.06;;;23.95;30.65
141;BME280;65;48.778;9.160;2023-04-22T13:40:19;97749.34;;;23.92;29.53
141;BME280;65;48.778;9.160;2023-04-22T13:43:07;97750.69;;;24.03;29.61
141;BME280;65;48.778;9.160;2023-04-22T13:45:53;97747.47;;;23.93;30.03
141;BME280;65;48.778;9.160;2023-04-22T13:48:39;97744.00;;;23.78;31.37
141;BME280;65;48.778;9.160;2023-04-22T13:51:24;97742.91;;;23.72;30.81
141;BME280;65;48.778;9.160;2023-04-22T13:54:10;97745.03;;;23.77;33.55
141;BME280;65;48.778;9.160;2023-04-22T13:56:56;97741.75;;;23.81;34.33
141;BME280;65;48.778;9.160;2023-04-22T13:59:42;97744.25;;;23.83;33.04
141;BME280;65;48.778;9.160;2023-04-22T14:02:27;97734.50;;;23.67;32.54
141;BME280;65;48.778;9.160;2023-04-22T14:05:13;97742.34;;;23.62;33.12
141;BME280;65;48.778;9.160;2023-04-22T14:07:59;97742.63;;;23.52;32.58
141;BME280;65;48.778;9.160;2023-04-22T14:10:45;97733.47;;;23.32;32.11
141;BME280;65;48.778;9.160;2023-04-22T14:13:31;97732.69;;;23.38;31.26
141;BME280;65;48.778;9.160;2023-04-22T14:16:17;97726.88;;;23.20;33.31
141;BME280;65;48.778;9.160;2023-04-22T14:22:46;97738.34;;;23.43;31.06
141;BME280;65;48.778;9.160;2023-04-22T14:25:32;97736.13;;;23.47;31.80
141;BME280;65;48.778;9.160;2023-04-22T14:28:17;97744.50;;;23.37;31.87
141;BME280;65;48.778;9.160;2023-04-22T14:31:07;97729.47;;;23.28;33.54
141;BME280;65;48.778;9.160;2023-04-22T14:33:53;97733.75;;;23.08;33.60
141;BME280;65;48.778;9.160;2023-04-22T14:36:38;97739.28;;;22.62;34.55
141;BME280;65;48.778;9.160;2023-04-22T14:39:24;97731.00;;;22.63;32.91
141;BME280;65;48.778;9.160;2023-04-22T14:42:10;97738.34;;;22.55;34.29
141;BME280;65;48.778;9.160;2023-04-22T14:44:56;97735.09;;;22.59;34.18
141;BME280;65;48.778;9.160;2023-04-22T14:47:41;97736.50;;;22.70;33.43
141;BME280;65;48.778;9.160;2023-04-22T14:50:27;97737.28;;;22.93;33.34
141;BME280;65;48.778;9.160;2023-04-22T14:53:13;97734.19;;;23.41;33.98
141;BME280;65;48.778;9.160;2023-04-22T14:55:59;97733.56;;;24.32;32.38
141;BME280;65;48.778;9.160;2023-04-22T14:58:45;97733.22;;;24.42;31.87
141;BME280;65;48.778;9.160;2023-04-22T15:01:31;97739.16;;;24.58;31.18
141;BME280;65;48.778;9.160;2023-04-22T15:04:17;97737.75;;;24.35;32.12
141;BME280;65;48.778;9.160;2023-04-22T15:07:03;97733.28;;;24.27;32.71
141;BME280;65;48.778;9.160;2023-04-22T15:09:49;97728.97;;;23.39;34.11
141;BME280;65;48.778;9.160;2023-04-22T15:12:35;97737.28;;;23.23;35.02
141;BME280;65;48.778;9.160;2023-04-22T15:15:20;97727.63;;;22.84;35.71
141;BME280;65;48.778;9.160;2023-04-22T15:18:06;97727.56;;;22.69;35.57
141;BME280;65;48.778;9.160;2023-04-22T15:20:52;97734.34;;;22.65;36.56
141;BME280;65;48.778;9.160;2023-04-22T15:23:38;97736.63;;;22.54;36.40
141;BME280;65;48.778;9.160;2023-04-22T15:26:24;97735.09;;;22.74;35.14
141;BME280;65;48.778;9.160;2023-04-22T15:29:10;97737.63;;;22.76;35.67
141;BME280;65;48.778;9.160;2023-04-22T15:31:55;97741.19;;;23.06;34.30
141;BME280;65;48.778;9.160;2023-04-22T15:34:41;97737.19;;;23.01;34.17
141;BME280;65;48.778;9.160;2023-04-22T15:37:27;97734.75;;;22.77;34.94
141;BME280;65;48.778;9.160;2023-04-22T15:40:12;97734.91;;;22.76;34.56
141;BME280;65;48.778;9.160;2023-04-22T15:42:58;97728.31;;;22.63;35.25
141;BME280;65;48.778;9.160;2023-04-22T15:45:44;97731.94;;;22.56;34.21
141;BME280;65;48.778;9.160;2023-04-22T15:48:31;97727.81;;;22.45;36.07
141;BME280;65;48.778;9.160;2023-04-22T15:51:18;97736.66;;;22.16;35.24
141;BME280;65;48.778;9.160;2023-04-22T15:54:03;97736.34;;;22.11;35.64
141;BME280;65;48.778;9.160;2023-04-22T15:56:51;97737.41;;;22.02;36.06